sensor_id;sensor_type;location;lat;lon;timestamp;P1;durP1;ratioP1;P2;durP2;ratioP2
60203;SDS011;46068;52.132;4.618;2022-11-15T08:26:12;12.60;;;4.60;;
60203;SDS011;46068;52.132;4.618;2022-11-15T08:28:39;10.27;;;4.55;;
60203;SDS011;46068;52.132;4.618;2022-11-15T08:31:05;12.00;;;4.30;;
60203;SDS011;46068;52.132;4.618;2022-11-15T08:33:32;12.90;;;4.50;;
60203;SDS011;46068;52.132;4.618;2022-11-15T08:35:58;12.55;;;4.90;;
60203;SDS011;46068;52.132;4.618;2022-11-15T08:38:25;10.45;;;4.95;;
60203;SDS011;46068;52.132;4.618;2022-11-15T08:40:53;11.85;;;5.00;;
60203;SDS011;46068;52.132;4.618;2022-11-15T08:43:26;11.70;;;5.10;;
60203;SDS011;46068;52.132;4.618;2022-11-15T08:45:55;11.70;;;5.60;;
60203;SDS011;46068;52.132;4.618;2022-11-15T08:48:21;12.02;;;5.30;;
60203;SDS011;46068;52.132;4.618;2022-11-15T08:50:48;12.47;;;5.63;;
60203;SDS011;46068;52.132;4.618;2022-11-15T08:53:14;11.35;;;5.60;;
60203;SDS011;46068;52.132;4.618;2022-11-15T08:55:40;12.07;;;5.50;;
60203;SDS011;46068;52.132;4.618;2022-11-15T08:58:06;11.60;;;5.20;;
60203;SDS011;46068;52.132;4.618;2022-11-15T09:00:34;13.20;;;5.80;;
60203;SDS011;46068;52.132;4.618;2022-11-15T09:03:03;12.80;;;5.73;;
60203;SDS011;46068;52.132;4.618;2022-11-15T09:05:29;10.98;;;4.95;;
60203;SDS011;46068;52.132;4.618;2022-11-15T09:07:55;12.30;;;5.32;;
60203;SDS011;46068;52.132;4.618;2022-11-15T09:10:21;9.98;;;5.20;;
60203;SDS011;46068;52.132;4.618;2022-11-15T09:12:48;11.10;;;5.03;;
60203;SDS011;46068;52.132;4.618;2022-11-15T09:15:15;9.70;;;4.82;;
60203;SDS011;46068;52.132;4.618;2022-11-15T09:17:42;10.65;;;4.97;;
60203;SDS011;46068;52.132;4.618;2022-11-15T10:23:34;5.00;;;2.30;;
60203;SDS011;46068;52.132;4.618;2022-11-15T10:26:00;6.47;;;2.40;;
60203;SDS011;46068;52.132;4.618;2022-11-15T10:30:54;7.00;;;2.30;;
60203;SDS011;46068;52.132;4.618;2022-11-15T10:33:25;7.72;;;2.25;;
60203;SDS011;46068;52.132;4.618;2022-11-15T10:38:49;6.40;;;1.98;;
60203;SDS011;46068;52.132;4.618;2022-11-15T10:41:18;5.95;;;1.88;;
60203;SDS011;46068;52.132;4.618;2022-11-15T10:43:45;7.25;;;1.85;;
60203;SDS011;46068;52.132;4.618;2022-11-15T10:46:16;4.50;;;1.80;;
60203;SDS011;46068;52.132;4.618;2022-11-15T10:48:44;6.65;;;2.13;;
60203;SDS011;46068;52.132;4.618;2022-11-15T10:51:18;6.57;;;2.25;;
60203;SDS011;46068;52.132;4.618;2022-11-15T10:53:47;5.90;;;1.90;;
60203;SDS011;46068;52.132;4.618;2022-11-15T10:56:15;4.85;;;1.70;;
60203;SDS011;46068;52.132;4.618;2022-11-15T10:58:51;9.85;;;2.20;;
60203;SDS011;46068;52.132;4.618;2022-11-15T11:01:19;6.15;;;2.20;;
60203;SDS011;46068;52.132;4.618;2022-11-15T11:03:57;7.13;;;2.00;;
60203;SDS011;46068;52.132;4.618;2022-11-15T11:06:24;8.73;;;1.95;;
60203;SDS011;46068;52.132;4.618;2022-11-15T11:08:55;5.47;;;1.95;;
60203;SDS011;46068;52.132;4.618;2022-11-15T11:11:22;7.22;;;1.92;;
60203;SDS011;46068;52.132;4.618;2022-11-15T11:13:49;5.93;;;1.70;;
60203;SDS011;46068;52.132;4.618;2022-11-15T12:53:59;4.30;;;1.10;;
